createdAt,value
2018-05-09T00:00:25.879Z,69.90
2018-05-09T00:02:52.948Z,70.60
2018-05-09T00:05:19.071Z,70.70
2018-05-09T00:07:46.322Z,70.10
2018-05-09T00:10:14.453Z,70.60
2018-05-09T00:12:40.504Z,71.00
2018-05-09T00:15:06.575Z,71.20
2018-05-09T00:17:33.653Z,70.50
2018-05-09T00:20:00.746Z,70.60
2018-05-09T00:22:26.907Z,70.50
2018-05-09T00:24:53.765Z,70.60
2018-05-09T00:27:19.945Z,70.40
2018-05-09T00:29:46.070Z,71.90
2018-05-09T00:32:13.169Z,71.80
2018-05-09T00:34:39.316Z,72.10
2018-05-09T00:37:05.510Z,72.30
2018-05-09T00:39:32.409Z,70.80
2018-05-09T00:42:00.560Z,70.50
2018-05-09T00:44:27.701Z,72.00
2018-05-09T00:46:53.869Z,71.80
2018-05-09T00:49:20.963Z,71.80
2018-05-09T00:51:48.016Z,71.10
2018-05-09T00:54:26.357Z,71.10
2018-05-09T00:56:55.646Z,72.70
2018-05-09T00:59:23.752Z,72.60
2018-05-09T01:01:49.923Z,72.10
2018-05-09T01:04:16.204Z,72.80
2018-05-09T01:06:42.455Z,72.40
2018-05-09T01:09:09.563Z,71.40
2018-05-09T01:11:35.639Z,72.60
2018-05-09T01:14:01.908Z,71.60
2018-05-09T01:16:29.004Z,71.80
2018-05-09T01:18:55.102Z,72.00
2018-05-09T01:21:24.513Z,72.10
2018-05-09T01:23:51.952Z,72.60
2018-05-09T01:26:18.144Z,72.40
2018-05-09T01:28:45.021Z,72.40
2018-05-09T01:31:11.197Z,72.30
2018-05-09T01:33:37.277Z,72.10
2018-05-09T01:36:04.466Z,71.70
2018-05-09T01:38:30.679Z,73.30
2018-05-09T01:40:57.786Z,73.20
2018-05-09T01:43:24.751Z,72.20
2018-05-09T01:45:50.954Z,72.20
2018-05-09T01:48:18.121Z,73.70
2018-05-09T01:50:46.200Z,73.30
2018-05-09T01:53:15.767Z,73.40
2018-05-09T01:55:41.852Z,72.90
2018-05-09T01:58:08.982Z,73.30
2018-05-09T02:00:36.050Z,74.00
2018-05-09T02:03:03.214Z,73.40
2018-05-09T02:05:29.387Z,73.60
2018-05-09T02:07:56.229Z,73.80
2018-05-09T02:10:23.489Z,73.90
2018-05-09T02:12:55.548Z,74.60
2018-05-09T02:15:22.416Z,73.60
2018-05-09T02:17:48.724Z,73.70
2018-05-09T02:20:15.637Z,74.00
2018-05-09T02:22:41.709Z,73.70
2018-05-09T02:25:07.836Z,74.60
2018-05-09T02:27:34.991Z,74.60
2018-05-09T02:30:04.200Z,74.90
2018-05-09T02:32:31.351Z,74.10
2018-05-09T02:34:57.472Z,77.20
2018-05-09T02:37:23.595Z,75.60
2018-05-09T02:39:49.709Z,75.50
2018-05-09T02:42:15.787Z,76.80
2018-05-09T02:44:41.872Z,76.20
2018-05-09T02:47:09.978Z,76.30
2018-05-09T02:49:37.155Z,76.80
2018-05-09T02:52:03.344Z,76.90
2018-05-09T02:54:30.507Z,76.30
2018-05-09T02:56:56.684Z,78.00
2018-05-09T02:59:25.556Z,77.90
2018-05-09T03:01:51.736Z,77.60
2018-05-09T03:04:17.784Z,78.00
2018-05-09T03:06:43.911Z,78.30
2018-05-09T03:09:10.182Z,78.10
2018-05-09T03:11:37.377Z,78.60
2018-05-09T03:14:04.576Z,79.40
2018-05-09T03:16:30.639Z,79.80
2018-05-09T03:18:58.562Z,79.20
2018-05-09T03:21:25.454Z,77.90
2018-05-09T03:23:51.912Z,77.70
2018-05-09T03:26:18.021Z,77.60
2018-05-09T03:28:44.284Z,79.90
2018-05-09T03:31:11.175Z,79.20
2018-05-09T03:33:37.296Z,79.50
2018-05-09T03:36:03.379Z,78.50
2018-05-09T03:38:30.281Z,78.10
2018-05-09T03:40:56.398Z,78.10
2018-05-09T03:43:22.485Z,78.60
2018-05-09T03:45:48.585Z,78.40
2018-05-09T03:48:14.791Z,78.50
2018-05-09T03:50:41.693Z,78.00
2018-05-09T03:53:07.767Z,77.80
2018-05-09T03:55:33.864Z,77.70
2018-05-09T03:58:01.765Z,77.00
2018-05-09T04:00:28.176Z,77.20
2018-05-09T04:03:06.555Z,79.50
2018-05-09T04:05:44.883Z,79.50
2018-05-09T04:08:24.033Z,77.90
2018-05-09T04:10:52.199Z,77.90
2018-05-09T04:13:18.294Z,78.40
2018-05-09T04:15:44.381Z,76.60
2018-05-09T04:18:10.468Z,77.20
2018-05-09T04:20:39.412Z,76.60
2018-05-09T04:23:05.947Z,76.60
2018-05-09T04:25:32.172Z,76.70
2018-05-09T04:27:59.085Z,76.40
2018-05-09T04:30:28.862Z,76.80
2018-05-09T04:32:56.744Z,76.10
2018-05-09T04:35:23.003Z,75.90
2018-05-09T04:37:49.338Z,76.30
2018-05-09T04:40:15.391Z,74.50
2018-05-09T04:42:42.468Z,74.70
2018-05-09T04:45:08.539Z,74.40
2018-05-09T04:47:35.720Z,74.20
2018-05-09T04:50:01.862Z,73.60
2018-05-09T04:52:27.940Z,73.80
2018-05-09T04:54:54.037Z,73.60
2018-05-09T04:57:20.097Z,71.40
2018-05-09T04:59:48.236Z,71.50
2018-05-09T05:02:14.407Z,71.20
2018-05-09T05:04:41.538Z,70.10
2018-05-09T05:07:07.586Z,68.70
2018-05-09T05:09:34.732Z,66.80
2018-05-09T05:12:00.852Z,66.40
2018-05-09T05:14:26.917Z,65.40
2018-05-09T05:16:52.961Z,63.60
2018-05-09T05:19:19.018Z,62.90
2018-05-09T05:21:46.137Z,62.50
2018-05-09T05:24:12.261Z,61.80
2018-05-09T05:26:38.709Z,59.80
2018-05-09T05:29:05.930Z,59.80
2018-05-09T05:31:32.790Z,59.40
2018-05-09T05:33:59.991Z,59.40
2018-05-09T05:36:27.217Z,58.90
2018-05-09T05:38:53.344Z,58.10
2018-05-09T05:41:22.117Z,57.80
2018-05-09T05:43:49.496Z,57.80
2018-05-09T05:46:17.631Z,57.00
2018-05-09T05:48:44.435Z,56.00
2018-05-09T05:51:11.532Z,55.90
2018-05-09T05:53:37.602Z,56.40
2018-05-09T05:56:05.784Z,55.00
2018-05-09T05:58:35.924Z,55.10
2018-05-09T06:01:02.003Z,55.00
2018-05-09T06:03:28.044Z,54.30
2018-05-09T06:05:54.194Z,53.80
2018-05-09T06:08:20.353Z,52.50
2018-05-09T06:10:47.145Z,53.10
2018-05-09T06:13:13.323Z,53.10
2018-05-09T06:15:39.686Z,53.30
2018-05-09T06:18:05.735Z,52.50
2018-05-09T06:20:31.798Z,52.30
2018-05-09T06:22:58.596Z,50.80
2018-05-09T06:25:25.672Z,50.60
2018-05-09T06:27:51.734Z,49.40
2018-05-09T06:30:17.859Z,50.30
2018-05-09T06:32:43.916Z,51.10
2018-05-09T06:35:10.070Z,50.70
2018-05-09T06:37:36.273Z,50.50
2018-05-09T06:40:02.503Z,49.60
2018-05-09T06:42:28.884Z,49.60
2018-05-09T06:44:55.707Z,48.40
2018-05-09T06:47:21.872Z,48.40
2018-05-09T06:49:47.903Z,47.30
2018-05-09T06:52:13.963Z,46.70
2018-05-09T06:54:44.125Z,46.30
2018-05-09T06:57:10.968Z,47.00
2018-05-09T06:59:37.865Z,44.40
2018-05-09T07:02:03.940Z,44.30
2018-05-09T07:04:30.053Z,44.60
2018-05-09T07:06:56.420Z,43.60
2018-05-09T07:09:25.940Z,44.50
2018-05-09T07:11:52.054Z,44.30
2018-05-09T07:14:18.291Z,44.90
2018-05-09T07:16:44.451Z,43.30
2018-05-09T07:19:10.610Z,42.50
2018-05-09T07:21:41.431Z,41.80
2018-05-09T07:24:10.424Z,43.10
2018-05-09T07:26:37.308Z,42.30
2018-05-09T07:29:05.360Z,42.80
2018-05-09T07:31:31.690Z,40.40
2018-05-09T07:33:58.503Z,43.10
2018-05-09T07:36:24.741Z,43.00
2018-05-09T07:38:51.561Z,41.70
2018-05-09T07:41:17.705Z,41.70
2018-05-09T07:43:43.892Z,39.10
2018-05-09T07:46:09.985Z,37.50
2018-05-09T07:48:37.903Z,38.50
2018-05-09T07:51:03.966Z,38.50
2018-05-09T07:53:30.841Z,36.80
2018-05-09T07:55:56.863Z,36.70
2018-05-09T07:58:25.067Z,37.20
2018-05-09T08:00:55.670Z,35.40
2018-05-09T08:03:21.807Z,36.20
2018-05-09T08:05:48.943Z,34.90
2018-05-09T08:08:15.091Z,34.60
2018-05-09T08:10:41.169Z,35.80
2018-05-09T08:13:08.158Z,35.00
2018-05-09T08:15:34.363Z,34.80
2018-05-09T08:18:01.438Z,35.20
2018-05-09T08:20:29.661Z,35.20
2018-05-09T08:22:56.852Z,34.10
2018-05-09T08:25:22.922Z,34.30
2018-05-09T08:27:50.099Z,33.30
2018-05-09T08:30:16.271Z,33.70
2018-05-09T08:32:42.336Z,31.90
2018-05-09T08:35:15.759Z,31.90
2018-05-09T08:37:47.385Z,32.80
2018-05-09T08:40:14.483Z,34.10
2018-05-09T08:42:40.580Z,34.10
2018-05-09T08:45:07.461Z,31.80
2018-05-09T08:47:33.567Z,31.70
2018-05-09T08:49:59.692Z,31.90
2018-05-09T08:52:25.746Z,31.00
2018-05-09T08:54:51.960Z,31.80
2018-05-09T08:57:18.026Z,30.50
2018-05-09T08:59:44.263Z,31.10
2018-05-09T09:02:10.510Z,30.10
2018-05-09T09:04:37.316Z,30.60
2018-05-09T09:07:03.561Z,30.60
2018-05-09T09:09:32.700Z,29.60
2018-05-09T09:11:58.804Z,29.50
2018-05-09T09:14:27.023Z,30.00
2018-05-09T09:16:54.164Z,31.00
2018-05-09T09:19:22.379Z,29.70
2018-05-09T09:21:48.466Z,28.80
2018-05-09T09:24:15.657Z,28.80
2018-05-09T09:26:41.807Z,30.20
2018-05-09T09:29:09.990Z,29.30
2018-05-09T09:31:41.866Z,29.30
2018-05-09T09:34:07.974Z,29.20
2018-05-09T09:36:34.935Z,30.50
2018-05-09T09:39:01.021Z,30.50
2018-05-09T09:41:27.990Z,28.60
2018-05-09T09:43:54.923Z,28.40
2018-05-09T09:46:22.884Z,28.70
2018-05-09T09:48:50.152Z,28.70
2018-05-09T09:51:16.308Z,28.20
2018-05-09T09:53:42.459Z,29.80
2018-05-09T09:56:14.391Z,28.60
2018-05-09T09:58:40.514Z,29.70
2018-05-09T10:01:10.226Z,29.40
2018-05-09T10:03:43.586Z,29.70
2018-05-09T10:06:09.680Z,29.30
2018-05-09T10:08:35.875Z,28.50
2018-05-09T10:11:01.987Z,29.40
2018-05-09T10:13:29.152Z,29.20
2018-05-09T10:15:56.380Z,28.80
2018-05-09T10:18:23.961Z,30.50
2018-05-09T10:20:50.096Z,30.10
2018-05-09T10:23:16.238Z,28.30
2018-05-09T10:25:43.392Z,27.60
2018-05-09T10:28:10.553Z,28.80
2018-05-09T10:30:37.582Z,27.60
2018-05-09T10:33:03.723Z,27.50
2018-05-09T10:35:29.841Z,28.50
2018-05-09T10:37:55.946Z,27.30
2018-05-09T10:40:22.035Z,28.10
2018-05-09T10:42:48.264Z,28.20
2018-05-09T10:45:18.627Z,28.70
2018-05-09T10:47:44.810Z,28.50
2018-05-09T10:50:10.984Z,28.40
2018-05-09T10:52:38.113Z,28.40
2018-05-09T10:55:04.961Z,28.20
2018-05-09T10:57:31.205Z,28.10
2018-05-09T10:59:58.065Z,28.70
2018-05-09T11:02:24.168Z,28.60
2018-05-09T11:04:50.289Z,29.50
2018-05-09T11:07:16.337Z,28.40
2018-05-09T11:09:42.348Z,29.70
2018-05-09T11:12:08.733Z,29.00
2018-05-09T11:14:36.026Z,29.20
2018-05-09T11:17:02.038Z,29.20
2018-05-09T11:19:30.024Z,29.00
2018-05-09T11:21:56.099Z,29.00
2018-05-09T11:24:22.400Z,28.90
2018-05-09T11:26:48.379Z,28.20
2018-05-09T11:29:21.597Z,28.40
2018-05-09T11:31:48.048Z,28.40
2018-05-09T11:34:16.225Z,28.60
2018-05-09T11:36:46.019Z,29.20
2018-05-09T11:39:12.179Z,29.40
2018-05-09T11:41:39.295Z,29.10
2018-05-09T11:44:06.377Z,29.60
2018-05-09T11:46:32.458Z,28.10
2018-05-09T11:49:02.420Z,28.40
2018-05-09T11:51:30.591Z,28.00
2018-05-09T11:53:57.708Z,29.00
2018-05-09T11:56:23.762Z,28.70
2018-05-09T11:58:49.938Z,28.40
2018-05-09T12:01:16.783Z,27.40
2018-05-09T12:03:42.979Z,27.30
2018-05-09T12:06:10.155Z,28.20
2018-05-09T12:08:37.949Z,28.10
2018-05-09T12:11:04.110Z,28.20
2018-05-09T12:13:30.349Z,29.00
2018-05-09T12:15:57.632Z,28.70
2018-05-09T12:18:25.533Z,26.90
2018-05-09T12:20:51.942Z,26.90
2018-05-09T12:23:18.843Z,27.40
2018-05-09T12:25:45.043Z,27.40
2018-05-09T12:28:11.232Z,28.20
2018-05-09T12:30:38.060Z,29.30
2018-05-09T12:33:05.131Z,29.90
2018-05-09T12:35:31.284Z,29.80
2018-05-09T12:37:57.403Z,29.70
2018-05-09T12:40:23.511Z,28.90
2018-05-09T12:42:50.597Z,28.90
2018-05-09T12:45:16.653Z,28.80
2018-05-09T12:47:43.751Z,29.30
2018-05-09T12:50:09.892Z,29.60
2018-05-09T12:52:36.032Z,29.10
2018-05-09T12:55:02.089Z,30.00
2018-05-09T12:57:28.165Z,29.90
2018-05-09T12:59:55.988Z,31.00
2018-05-09T13:02:22.123Z,30.80
2018-05-09T13:04:50.030Z,28.80
2018-05-09T13:07:16.086Z,28.80
2018-05-09T13:09:42.376Z,30.40
2018-05-09T13:12:09.429Z,30.80
2018-05-09T13:14:35.619Z,29.60
2018-05-09T13:17:02.415Z,30.50
2018-05-09T13:19:29.581Z,30.50
2018-05-09T13:21:57.139Z,30.40
2018-05-09T13:24:24.206Z,30.20
2018-05-09T13:26:51.017Z,30.60
2018-05-09T13:29:17.125Z,30.60
2018-05-09T13:31:44.196Z,30.60
2018-05-09T13:34:13.364Z,32.30
2018-05-09T13:36:40.788Z,31.20
2018-05-09T13:39:09.865Z,32.80
2018-05-09T13:41:36.919Z,32.80
2018-05-09T13:44:02.953Z,32.20
2018-05-09T13:46:29.075Z,32.30
2018-05-09T13:48:55.337Z,32.90
2018-05-09T13:51:22.499Z,32.40
2018-05-09T13:53:49.627Z,32.50
2018-05-09T13:56:15.674Z,33.30
2018-05-09T13:58:42.504Z,32.40
2018-05-09T14:01:08.549Z,32.30
2018-05-09T14:03:35.899Z,32.00
2018-05-09T14:06:01.997Z,32.40
2018-05-09T14:08:29.091Z,32.40
2018-05-09T14:10:57.493Z,32.60
2018-05-09T14:13:25.812Z,33.50
2018-05-09T14:15:54.006Z,34.30
2018-05-09T14:18:20.108Z,33.20
2018-05-09T14:20:47.646Z,32.90
2018-05-09T14:23:15.405Z,33.50
2018-05-09T14:25:41.488Z,33.60
2018-05-09T14:28:09.719Z,33.70
2018-05-09T14:30:36.503Z,32.70
2018-05-09T14:33:02.688Z,32.60
2018-05-09T14:35:29.729Z,34.00
2018-05-09T14:37:55.821Z,33.90
2018-05-09T14:40:22.283Z,34.30
2018-05-09T14:42:48.376Z,33.00
2018-05-09T14:45:14.700Z,32.80
2018-05-09T14:47:40.880Z,32.50
2018-05-09T14:50:08.764Z,33.20
2018-05-09T14:52:35.688Z,33.30
2018-05-09T14:55:02.524Z,35.20
2018-05-09T14:57:28.676Z,34.90
2018-05-09T14:59:55.511Z,34.80
2018-05-09T15:02:22.412Z,35.80
2018-05-09T15:04:48.622Z,35.70
2018-05-09T15:07:14.713Z,35.00
2018-05-09T15:09:41.569Z,35.10
2018-05-09T15:12:08.653Z,35.00
2018-05-09T15:14:34.756Z,35.10
2018-05-09T15:17:01.943Z,34.70
2018-05-09T15:19:28.099Z,34.50
2018-05-09T15:21:55.217Z,34.60
2018-05-09T15:24:21.244Z,35.10
2018-05-09T15:26:47.308Z,35.20
2018-05-09T15:29:14.105Z,36.60
2018-05-09T15:31:40.188Z,36.50
2018-05-09T15:34:06.246Z,37.20
2018-05-09T15:36:33.339Z,37.80
2018-05-09T15:39:00.320Z,37.60
2018-05-09T15:41:26.279Z,37.50
2018-05-09T15:43:52.323Z,37.10
2018-05-09T15:46:18.523Z,37.30
2018-05-09T15:48:44.622Z,37.10
2018-05-09T15:51:11.735Z,36.70
2018-05-09T15:53:38.699Z,38.20
2018-05-09T15:56:05.605Z,37.10
2018-05-09T15:58:31.809Z,36.90
2018-05-09T16:00:58.896Z,37.00
2018-05-09T16:03:26.843Z,38.00
2018-05-09T16:05:52.913Z,38.00
2018-05-09T16:08:19.732Z,38.30
2018-05-09T16:10:45.977Z,38.20
2018-05-09T16:13:13.889Z,38.70
2018-05-09T16:15:40.695Z,38.10
2018-05-09T16:18:06.815Z,38.10
2018-05-09T16:20:34.689Z,38.10
2018-05-09T16:23:01.536Z,37.60
2018-05-09T16:25:27.720Z,37.60
2018-05-09T16:27:55.065Z,38.10
2018-05-09T16:30:21.128Z,38.70
2018-05-09T16:32:50.123Z,38.50
2018-05-09T16:35:18.001Z,39.00
2018-05-09T16:37:44.783Z,39.00
2018-05-09T16:40:11.860Z,39.00
2018-05-09T16:42:38.948Z,38.40
2018-05-09T16:45:05.025Z,38.90
2018-05-09T16:47:31.102Z,38.30
2018-05-09T16:49:57.261Z,38.40
2018-05-09T16:52:23.340Z,38.30
2018-05-09T16:54:50.190Z,38.90
2018-05-09T16:57:16.312Z,38.90
2018-05-09T16:59:43.190Z,38.80
2018-05-09T17:02:10.284Z,38.80
2018-05-09T17:04:37.201Z,39.00
2018-05-09T17:07:03.310Z,39.00
2018-05-09T17:09:29.401Z,39.40
2018-05-09T17:11:55.572Z,39.30
2018-05-09T17:14:25.304Z,39.70
2018-05-09T17:16:51.360Z,39.60
2018-05-09T17:19:18.272Z,40.30
2018-05-09T17:21:56.621Z,40.30
2018-05-09T17:24:27.279Z,40.80
2018-05-09T17:26:55.143Z,42.70
2018-05-09T17:29:21.225Z,42.70
2018-05-09T17:31:48.043Z,45.80
2018-05-09T17:34:14.209Z,45.80
2018-05-09T17:36:41.077Z,47.20
2018-05-09T17:39:07.211Z,47.20
2018-05-09T17:41:33.510Z,47.50
2018-05-09T17:44:00.223Z,47.90
2018-05-09T17:46:27.331Z,47.80
2018-05-09T17:48:55.523Z,49.10
2018-05-09T17:51:21.633Z,48.20
2018-05-09T17:53:48.467Z,49.30
2018-05-09T17:56:14.642Z,49.20
2018-05-09T17:58:40.865Z,49.10
2018-05-09T18:01:06.972Z,49.30
2018-05-09T18:03:33.051Z,49.60
2018-05-09T18:05:59.855Z,50.00
2018-05-09T18:08:25.991Z,50.10
2018-05-09T18:10:52.063Z,50.10
2018-05-09T18:13:18.910Z,50.60
2018-05-09T18:15:46.011Z,50.50
2018-05-09T18:18:12.167Z,50.20
2018-05-09T18:20:38.251Z,50.60
2018-05-09T18:23:04.331Z,51.10
2018-05-09T18:25:31.207Z,51.60
2018-05-09T18:27:57.361Z,51.50
2018-05-09T18:30:24.657Z,51.90
2018-05-09T18:32:51.436Z,52.90
2018-05-09T18:35:17.606Z,52.90
2018-05-09T18:37:44.407Z,53.10
2018-05-09T18:40:12.513Z,53.10
2018-05-09T18:42:42.359Z,53.10
2018-05-09T18:45:08.467Z,52.80
2018-05-09T18:47:35.360Z,53.60
2018-05-09T18:50:01.685Z,53.50
2018-05-09T18:52:27.773Z,53.50
2018-05-09T18:54:54.647Z,54.30
2018-05-09T18:57:21.790Z,54.20
2018-05-09T18:59:47.876Z,54.30
2018-05-09T19:02:15.212Z,54.40
2018-05-09T19:04:41.702Z,55.30
2018-05-09T19:07:08.521Z,56.00
2018-05-09T19:09:36.334Z,56.70
2018-05-09T19:12:02.528Z,56.70
2018-05-09T19:14:30.449Z,56.70
2018-05-09T19:16:57.535Z,56.60
2018-05-09T19:19:23.603Z,57.30
2018-05-09T19:21:49.717Z,57.50
2018-05-09T19:24:15.912Z,58.70
2018-05-09T19:26:46.129Z,58.70
2018-05-09T19:29:12.275Z,58.70
2018-05-09T19:31:38.331Z,58.90
2018-05-09T19:34:04.359Z,59.40
2018-05-09T19:36:30.502Z,59.50
2018-05-09T19:38:59.856Z,60.80
2018-05-09T19:41:26.325Z,60.90
2018-05-09T19:43:54.194Z,61.80
2018-05-09T19:46:20.358Z,61.80
2018-05-09T19:48:47.415Z,62.80
2018-05-09T19:51:16.783Z,62.70
2018-05-09T19:53:42.823Z,62.10
2018-05-09T19:56:08.967Z,63.40
2018-05-09T19:58:36.158Z,63.60
2018-05-09T20:01:03.416Z,63.50
2018-05-09T20:03:29.597Z,64.10
2018-05-09T20:05:56.808Z,63.40
2018-05-09T20:08:22.887Z,63.60
2018-05-09T20:10:51.812Z,64.50
2018-05-09T20:13:17.940Z,64.30
2018-05-09T20:15:47.253Z,65.70
2018-05-09T20:18:13.732Z,65.00
2018-05-09T20:20:42.158Z,65.10
2018-05-09T20:23:08.385Z,65.70
2018-05-09T20:25:34.826Z,65.10
2018-05-09T20:28:01.741Z,65.90
2018-05-09T20:30:35.503Z,65.90
2018-05-09T20:33:02.952Z,66.20
2018-05-09T20:35:31.090Z,66.30
2018-05-09T20:37:58.615Z,66.90
2018-05-09T20:40:27.870Z,66.70
2018-05-09T20:42:55.031Z,66.70
2018-05-09T20:45:21.259Z,66.90
2018-05-09T20:47:47.508Z,67.80
2018-05-09T20:50:20.058Z,67.80
2018-05-09T20:52:46.597Z,67.90
2018-05-09T20:55:25.009Z,67.20
2018-05-09T20:57:51.192Z,67.50
2018-05-09T21:00:17.401Z,67.20
2018-05-09T21:02:45.480Z,67.80
2018-05-09T21:05:11.920Z,68.00
2018-05-09T21:07:51.198Z,68.10
2018-05-09T21:10:17.315Z,68.00
2018-05-09T21:12:44.482Z,68.30
2018-05-09T21:15:10.716Z,69.40
2018-05-09T21:17:37.127Z,69.10
2018-05-09T21:20:03.244Z,68.30
2018-05-09T21:22:29.324Z,69.30
2018-05-09T21:24:56.284Z,69.80
2018-05-09T21:27:23.124Z,69.30
2018-05-09T21:29:49.227Z,69.30
2018-05-09T21:32:15.988Z,70.80
2018-05-09T21:34:42.374Z,69.40
2018-05-09T21:37:08.452Z,70.10
2018-05-09T21:39:35.738Z,70.40
2018-05-09T21:42:01.805Z,70.20
2018-05-09T21:44:27.896Z,69.00
2018-05-09T21:46:55.286Z,69.80
2018-05-09T21:49:21.570Z,68.60
2018-05-09T21:51:47.676Z,69.40
2018-05-09T21:54:13.724Z,69.90
2018-05-09T21:56:39.848Z,69.10
2018-05-09T21:59:05.991Z,70.20
2018-05-09T22:01:32.131Z,68.90
2018-05-09T22:03:58.244Z,70.60
2018-05-09T22:06:25.356Z,70.00
2018-05-09T22:08:56.544Z,70.10
2018-05-09T22:11:23.861Z,70.10
2018-05-09T22:13:50.686Z,70.00
2018-05-09T22:16:16.757Z,69.90
2018-05-09T22:18:43.871Z,70.70
2018-05-09T22:21:10.759Z,69.80
2018-05-09T22:23:36.863Z,69.80
2018-05-09T22:26:03.061Z,70.60
2018-05-09T22:28:30.168Z,71.00
2018-05-09T22:30:56.578Z,72.30
2018-05-09T22:33:28.890Z,71.40
2018-05-09T22:35:55.046Z,72.20
2018-05-09T22:38:21.911Z,70.80
2018-05-09T22:40:48.189Z,70.50
2018-05-09T22:43:14.320Z,72.10
2018-05-09T22:45:40.589Z,70.90
2018-05-09T22:48:07.357Z,72.60
2018-05-09T22:50:34.421Z,72.60
2018-05-09T22:53:01.069Z,71.30
2018-05-09T22:55:28.098Z,72.70
2018-05-09T22:57:54.166Z,73.20
2018-05-09T23:00:24.441Z,74.70
2018-05-09T23:02:50.775Z,74.30
2018-05-09T23:05:16.861Z,71.80
2018-05-09T23:07:43.785Z,73.20
2018-05-09T23:10:09.854Z,72.90
2018-05-09T23:12:36.706Z,72.80
2018-05-09T23:15:02.866Z,72.80
2018-05-09T23:17:31.004Z,74.20
2018-05-09T23:19:57.069Z,74.20
2018-05-09T23:22:23.115Z,74.70
2018-05-09T23:24:53.017Z,73.60
2018-05-09T23:27:20.099Z,74.40
2018-05-09T23:29:46.950Z,73.70
2018-05-09T23:32:13.783Z,73.60
2018-05-09T23:34:40.610Z,73.50
2018-05-09T23:37:10.052Z,73.30
2018-05-09T23:39:38.417Z,74.20
2018-05-09T23:42:06.310Z,73.60
2018-05-09T23:44:32.364Z,73.30
2018-05-09T23:46:58.505Z,73.80
2018-05-09T23:49:26.555Z,73.10
2018-05-09T23:51:52.785Z,72.80
2018-05-09T23:54:19.815Z,73.50
2018-05-09T23:56:45.923Z,72.70
2018-05-09T23:59:12.030Z,72.20
